sensor_id;sensor_type;location;lat;lon;timestamp;P1;durP1;ratioP1;P2;durP2;ratioP2
18822;SDS011;9540;51.550;7.980;2023-05-16T00:01:17;14.50;;;8.25;;
18822;SDS011;9540;51.550;7.980;2023-05-16T00:03:44;11.63;;;7.75;;
18822;SDS011;9540;51.550;7.980;2023-05-16T00:06:11;11.50;;;8.15;;
18822;SDS011;9540;51.550;7.980;2023-05-16T00:08:38;11.25;;;7.07;;
18822;SDS011;9540;51.550;7.980;2023-05-16T00:11:05;9.35;;;7.50;;
18822;SDS011;9540;51.550;7.980;2023-05-16T00:13:33;9.50;;;7.53;;
18822;SDS011;9540;51.550;7.980;2023-05-16T00:16:01;14.13;;;8.77;;
18822;SDS011;9540;51.550;7.980;2023-05-16T00:18:29;12.80;;;8.38;;
18822;SDS011;9540;51.550;7.980;2023-05-16T00:20:56;11.32;;;8.18;;
18822;SDS011;9540;51.550;7.980;2023-05-16T00:23:24;15.40;;;8.65;;
18822;SDS011;9540;51.550;7.980;2023-05-16T00:25:51;12.50;;;8.13;;
18822;SDS011;9540;51.550;7.980;2023-05-16T00:28:18;13.10;;;8.90;;
18822;SDS011;9540;51.550;7.980;2023-05-16T00:30:47;15.52;;;9.38;;
18822;SDS011;9540;51.550;7.980;2023-05-16T00:33:14;12.13;;;9.05;;
18822;SDS011;9540;51.550;7.980;2023-05-16T00:35:41;14.35;;;9.45;;
18822;SDS011;9540;51.550;7.980;2023-05-16T00:38:08;14.20;;;9.02;;
18822;SDS011;9540;51.550;7.980;2023-05-16T00:40:35;14.23;;;9.57;;
18822;SDS011;9540;51.550;7.980;2023-05-16T00:43:02;15.05;;;10.27;;
18822;SDS011;9540;51.550;7.980;2023-05-16T00:45:29;12.38;;;8.90;;
18822;SDS011;9540;51.550;7.980;2023-05-16T00:47:58;17.85;;;9.73;;
18822;SDS011;9540;51.550;7.980;2023-05-16T00:50:25;14.27;;;9.55;;
18822;SDS011;9540;51.550;7.980;2023-05-16T00:52:52;17.38;;;9.95;;
18822;SDS011;9540;51.550;7.980;2023-05-16T00:55:19;22.67;;;11.48;;
18822;SDS011;9540;51.550;7.980;2023-05-16T00:57:47;14.95;;;9.95;;
18822;SDS011;9540;51.550;7.980;2023-05-16T01:00:14;14.48;;;9.85;;
18822;SDS011;9540;51.550;7.980;2023-05-16T01:02:43;18.48;;;11.60;;
18822;SDS011;9540;51.550;7.980;2023-05-16T01:05:13;15.25;;;10.52;;
18822;SDS011;9540;51.550;7.980;2023-05-16T01:07:40;18.00;;;11.50;;
18822;SDS011;9540;51.550;7.980;2023-05-16T01:10:08;17.58;;;12.13;;
18822;SDS011;9540;51.550;7.980;2023-05-16T01:12:36;19.10;;;11.48;;
18822;SDS011;9540;51.550;7.980;2023-05-16T01:15:11;22.38;;;12.65;;
18822;SDS011;9540;51.550;7.980;2023-05-16T01:17:44;21.48;;;13.80;;
18822;SDS011;9540;51.550;7.980;2023-05-16T01:20:22;22.48;;;13.15;;
18822;SDS011;9540;51.550;7.980;2023-05-16T01:23:15;18.08;;;12.02;;
18822;SDS011;9540;51.550;7.980;2023-05-16T01:25:56;19.88;;;11.90;;
18822;SDS011;9540;51.550;7.980;2023-05-16T01:28:36;18.48;;;11.50;;
18822;SDS011;9540;51.550;7.980;2023-05-16T01:31:04;23.23;;;12.95;;
18822;SDS011;9540;51.550;7.980;2023-05-16T01:33:31;19.08;;;12.57;;
18822;SDS011;9540;51.550;7.980;2023-05-16T01:36:00;22.77;;;13.45;;
18822;SDS011;9540;51.550;7.980;2023-05-16T01:38:33;20.20;;;11.93;;
18822;SDS011;9540;51.550;7.980;2023-05-16T01:41:07;21.85;;;13.05;;
18822;SDS011;9540;51.550;7.980;2023-05-16T01:43:41;28.67;;;14.10;;
18822;SDS011;9540;51.550;7.980;2023-05-16T01:46:11;23.30;;;13.65;;
18822;SDS011;9540;51.550;7.980;2023-05-16T01:48:42;24.65;;;14.82;;
18822;SDS011;9540;51.550;7.980;2023-05-16T01:51:16;27.17;;;14.80;;
18822;SDS011;9540;51.550;7.980;2023-05-16T01:53:46;28.38;;;15.20;;
18822;SDS011;9540;51.550;7.980;2023-05-16T01:56:17;27.10;;;14.10;;
18822;SDS011;9540;51.550;7.980;2023-05-16T01:58:45;22.52;;;14.07;;
18822;SDS011;9540;51.550;7.980;2023-05-16T02:01:15;25.52;;;14.82;;
18822;SDS011;9540;51.550;7.980;2023-05-16T02:03:42;27.13;;;15.05;;
18822;SDS011;9540;51.550;7.980;2023-05-16T02:06:09;23.65;;;13.57;;
18822;SDS011;9540;51.550;7.980;2023-05-16T02:08:36;25.70;;;13.15;;
18822;SDS011;9540;51.550;7.980;2023-05-16T02:11:03;22.60;;;12.93;;
18822;SDS011;9540;51.550;7.980;2023-05-16T02:13:31;24.63;;;12.32;;
18822;SDS011;9540;51.550;7.980;2023-05-16T02:15:59;20.05;;;11.60;;
18822;SDS011;9540;51.550;7.980;2023-05-16T02:18:26;29.88;;;13.88;;
18822;SDS011;9540;51.550;7.980;2023-05-16T02:20:53;28.10;;;13.80;;
18822;SDS011;9540;51.550;7.980;2023-05-16T02:23:20;23.33;;;13.05;;
18822;SDS011;9540;51.550;7.980;2023-05-16T02:25:47;25.45;;;13.75;;
18822;SDS011;9540;51.550;7.980;2023-05-16T02:28:15;22.40;;;13.25;;
18822;SDS011;9540;51.550;7.980;2023-05-16T02:30:43;14.20;;;7.53;;
18822;SDS011;9540;51.550;7.980;2023-05-16T02:33:10;17.00;;;6.20;;
18822;SDS011;9540;51.550;7.980;2023-05-16T02:35:37;7.18;;;4.22;;
18822;SDS011;9540;51.550;7.980;2023-05-16T02:38:04;6.18;;;3.60;;
18822;SDS011;9540;51.550;7.980;2023-05-16T02:42:59;11.07;;;4.18;;
18822;SDS011;9540;51.550;7.980;2023-05-16T02:45:26;11.73;;;4.10;;
18822;SDS011;9540;51.550;7.980;2023-05-16T02:47:54;10.38;;;4.40;;
18822;SDS011;9540;51.550;7.980;2023-05-16T02:50:21;13.55;;;4.57;;
18822;SDS011;9540;51.550;7.980;2023-05-16T02:52:48;16.67;;;4.45;;
18822;SDS011;9540;51.550;7.980;2023-05-16T02:55:16;19.08;;;5.43;;
18822;SDS011;9540;51.550;7.980;2023-05-16T02:57:43;18.13;;;5.68;;
18822;SDS011;9540;51.550;7.980;2023-05-16T03:00:11;17.95;;;5.53;;
18822;SDS011;9540;51.550;7.980;2023-05-16T03:02:39;17.73;;;5.88;;
18822;SDS011;9540;51.550;7.980;2023-05-16T03:05:07;19.83;;;5.88;;
18822;SDS011;9540;51.550;7.980;2023-05-16T03:07:35;20.85;;;5.65;;
18822;SDS011;9540;51.550;7.980;2023-05-16T03:10:03;21.88;;;6.32;;
18822;SDS011;9540;51.550;7.980;2023-05-16T03:12:31;14.88;;;5.53;;
18822;SDS011;9540;51.550;7.980;2023-05-16T03:14:58;20.55;;;6.28;;
18822;SDS011;9540;51.550;7.980;2023-05-16T03:17:25;19.70;;;6.10;;
18822;SDS011;9540;51.550;7.980;2023-05-16T03:19:53;18.63;;;5.53;;
18822;SDS011;9540;51.550;7.980;2023-05-16T03:22:21;21.33;;;6.53;;
18822;SDS011;9540;51.550;7.980;2023-05-16T03:24:48;20.50;;;6.68;;
18822;SDS011;9540;51.550;7.980;2023-05-16T03:27:15;28.05;;;6.00;;
18822;SDS011;9540;51.550;7.980;2023-05-16T03:29:42;16.02;;;6.28;;
18822;SDS011;9540;51.550;7.980;2023-05-16T03:32:10;22.15;;;6.20;;
18822;SDS011;9540;51.550;7.980;2023-05-16T03:34:37;16.67;;;6.15;;
18822;SDS011;9540;51.550;7.980;2023-05-16T03:37:05;16.48;;;7.20;;
18822;SDS011;9540;51.550;7.980;2023-05-16T03:39:33;24.85;;;6.82;;
18822;SDS011;9540;51.550;7.980;2023-05-16T03:42:00;21.30;;;6.90;;
18822;SDS011;9540;51.550;7.980;2023-05-16T03:44:28;17.67;;;5.82;;
18822;SDS011;9540;51.550;7.980;2023-05-16T03:46:55;15.45;;;6.15;;
18822;SDS011;9540;51.550;7.980;2023-05-16T03:49:25;20.05;;;6.82;;
18822;SDS011;9540;51.550;7.980;2023-05-16T03:51:53;21.60;;;7.13;;
18822;SDS011;9540;51.550;7.980;2023-05-16T03:54:20;17.60;;;7.22;;
18822;SDS011;9540;51.550;7.980;2023-05-16T03:56:49;22.58;;;8.05;;
18822;SDS011;9540;51.550;7.980;2023-05-16T03:59:16;28.30;;;7.72;;
18822;SDS011;9540;51.550;7.980;2023-05-16T04:01:43;28.25;;;9.02;;
18822;SDS011;9540;51.550;7.980;2023-05-16T04:04:11;33.47;;;9.13;;
18822;SDS011;9540;51.550;7.980;2023-05-16T04:06:38;37.70;;;11.60;;
18822;SDS011;9540;51.550;7.980;2023-05-16T04:09:05;33.85;;;9.93;;
18822;SDS011;9540;51.550;7.980;2023-05-16T04:11:32;36.90;;;10.10;;
18822;SDS011;9540;51.550;7.980;2023-05-16T04:14:01;39.55;;;9.93;;
18822;SDS011;9540;51.550;7.980;2023-05-16T04:16:29;30.05;;;9.43;;
18822;SDS011;9540;51.550;7.980;2023-05-16T04:18:56;37.45;;;10.45;;
18822;SDS011;9540;51.550;7.980;2023-05-16T04:21:23;31.17;;;9.45;;
18822;SDS011;9540;51.550;7.980;2023-05-16T04:23:50;42.75;;;10.55;;
18822;SDS011;9540;51.550;7.980;2023-05-16T04:26:17;36.88;;;9.00;;
18822;SDS011;9540;51.550;7.980;2023-05-16T04:28:46;29.98;;;11.10;;
18822;SDS011;9540;51.550;7.980;2023-05-16T04:31:14;40.88;;;10.18;;
18822;SDS011;9540;51.550;7.980;2023-05-16T04:33:41;34.20;;;8.77;;
18822;SDS011;9540;51.550;7.980;2023-05-16T04:36:08;31.88;;;9.20;;
18822;SDS011;9540;51.550;7.980;2023-05-16T04:38:36;39.50;;;9.43;;
18822;SDS011;9540;51.550;7.980;2023-05-16T04:41:03;32.17;;;9.65;;
18822;SDS011;9540;51.550;7.980;2023-05-16T04:43:30;32.97;;;9.05;;
18822;SDS011;9540;51.550;7.980;2023-05-16T04:45:57;29.90;;;8.18;;
18822;SDS011;9540;51.550;7.980;2023-05-16T04:48:26;32.08;;;8.30;;
18822;SDS011;9540;51.550;7.980;2023-05-16T04:50:53;37.95;;;7.80;;
18822;SDS011;9540;51.550;7.980;2023-05-16T04:53:21;38.03;;;8.00;;
18822;SDS011;9540;51.550;7.980;2023-05-16T04:55:48;37.25;;;8.50;;
18822;SDS011;9540;51.550;7.980;2023-05-16T04:58:15;33.05;;;8.38;;
18822;SDS011;9540;51.550;7.980;2023-05-16T05:00:42;30.77;;;7.45;;
18822;SDS011;9540;51.550;7.980;2023-05-16T05:03:09;34.97;;;8.02;;
18822;SDS011;9540;51.550;7.980;2023-05-16T05:05:38;43.45;;;7.55;;
18822;SDS011;9540;51.550;7.980;2023-05-16T05:08:05;31.52;;;7.07;;
18822;SDS011;9540;51.550;7.980;2023-05-16T05:10:32;42.65;;;8.93;;
18822;SDS011;9540;51.550;7.980;2023-05-16T05:12:59;39.03;;;7.72;;
18822;SDS011;9540;51.550;7.980;2023-05-16T05:15:26;28.80;;;6.85;;
18822;SDS011;9540;51.550;7.980;2023-05-16T05:17:53;33.88;;;6.30;;
18822;SDS011;9540;51.550;7.980;2023-05-16T05:20:20;39.10;;;7.93;;
18822;SDS011;9540;51.550;7.980;2023-05-16T05:22:48;27.92;;;6.82;;
18822;SDS011;9540;51.550;7.980;2023-05-16T05:25:16;27.85;;;5.78;;
18822;SDS011;9540;51.550;7.980;2023-05-16T05:27:43;24.00;;;5.53;;
18822;SDS011;9540;51.550;7.980;2023-05-16T05:30:11;28.40;;;5.70;;
18822;SDS011;9540;51.550;7.980;2023-05-16T05:32:38;24.48;;;5.43;;
18822;SDS011;9540;51.550;7.980;2023-05-16T05:35:05;24.60;;;5.15;;
18822;SDS011;9540;51.550;7.980;2023-05-16T05:37:33;34.45;;;6.20;;
18822;SDS011;9540;51.550;7.980;2023-05-16T05:40:01;25.73;;;6.07;;
18822;SDS011;9540;51.550;7.980;2023-05-16T05:42:29;31.05;;;5.28;;
18822;SDS011;9540;51.550;7.980;2023-05-16T05:44:56;28.10;;;5.78;;
18822;SDS011;9540;51.550;7.980;2023-05-16T05:47:23;30.88;;;6.07;;
18822;SDS011;9540;51.550;7.980;2023-05-16T05:49:51;16.70;;;5.18;;
18822;SDS011;9540;51.550;7.980;2023-05-16T05:52:18;26.70;;;5.97;;
18822;SDS011;9540;51.550;7.980;2023-05-16T05:54:46;37.97;;;9.27;;
18822;SDS011;9540;51.550;7.980;2023-05-16T05:57:15;29.67;;;8.32;;
18822;SDS011;9540;51.550;7.980;2023-05-16T05:59:42;30.55;;;7.10;;
18822;SDS011;9540;51.550;7.980;2023-05-16T06:02:09;21.80;;;5.70;;
18822;SDS011;9540;51.550;7.980;2023-05-16T06:04:36;26.30;;;4.45;;
18822;SDS011;9540;51.550;7.980;2023-05-16T06:07:03;23.17;;;4.72;;
18822;SDS011;9540;51.550;7.980;2023-05-16T06:09:31;21.65;;;4.80;;
18822;SDS011;9540;51.550;7.980;2023-05-16T06:11:58;28.08;;;5.38;;
18822;SDS011;9540;51.550;7.980;2023-05-16T06:14:27;26.92;;;4.72;;
18822;SDS011;9540;51.550;7.980;2023-05-16T06:16:54;30.15;;;4.45;;
18822;SDS011;9540;51.550;7.980;2023-05-16T06:19:21;23.63;;;5.13;;
18822;SDS011;9540;51.550;7.980;2023-05-16T06:21:48;13.23;;;4.25;;
18822;SDS011;9540;51.550;7.980;2023-05-16T06:24:15;18.75;;;4.32;;
18822;SDS011;9540;51.550;7.980;2023-05-16T06:26:43;21.40;;;4.20;;
18822;SDS011;9540;51.550;7.980;2023-05-16T06:29:17;17.05;;;4.68;;
18822;SDS011;9540;51.550;7.980;2023-05-16T06:31:45;32.38;;;4.25;;
18822;SDS011;9540;51.550;7.980;2023-05-16T06:34:12;17.65;;;3.78;;
18822;SDS011;9540;51.550;7.980;2023-05-16T06:36:39;23.05;;;3.65;;
18822;SDS011;9540;51.550;7.980;2023-05-16T06:39:08;19.10;;;4.03;;
18822;SDS011;9540;51.550;7.980;2023-05-16T06:41:35;11.93;;;3.65;;
18822;SDS011;9540;51.550;7.980;2023-05-16T06:44:02;22.33;;;3.95;;
18822;SDS011;9540;51.550;7.980;2023-05-16T06:46:29;21.35;;;4.13;;
18822;SDS011;9540;51.550;7.980;2023-05-16T06:48:59;14.20;;;3.78;;
18822;SDS011;9540;51.550;7.980;2023-05-16T06:51:26;24.23;;;5.25;;
18822;SDS011;9540;51.550;7.980;2023-05-16T06:53:53;12.70;;;3.53;;
18822;SDS011;9540;51.550;7.980;2023-05-16T06:56:20;20.98;;;4.22;;
18822;SDS011;9540;51.550;7.980;2023-05-16T06:58:47;17.27;;;4.22;;
18822;SDS011;9540;51.550;7.980;2023-05-16T07:01:15;14.02;;;3.40;;
18822;SDS011;9540;51.550;7.980;2023-05-16T07:03:42;19.17;;;3.67;;
18822;SDS011;9540;51.550;7.980;2023-05-16T07:06:10;13.27;;;3.40;;
18822;SDS011;9540;51.550;7.980;2023-05-16T07:08:37;19.48;;;3.78;;
18822;SDS011;9540;51.550;7.980;2023-05-16T07:11:05;16.50;;;3.42;;
18822;SDS011;9540;51.550;7.980;2023-05-16T07:13:32;16.52;;;3.28;;
18822;SDS011;9540;51.550;7.980;2023-05-16T07:15:59;19.58;;;3.72;;
18822;SDS011;9540;51.550;7.980;2023-05-16T07:18:26;20.67;;;4.38;;
18822;SDS011;9540;51.550;7.980;2023-05-16T07:20:53;25.98;;;4.03;;
18822;SDS011;9540;51.550;7.980;2023-05-16T07:23:21;9.88;;;3.30;;
18822;SDS011;9540;51.550;7.980;2023-05-16T07:25:49;21.17;;;3.30;;
18822;SDS011;9540;51.550;7.980;2023-05-16T07:28:17;16.50;;;3.53;;
18822;SDS011;9540;51.550;7.980;2023-05-16T07:30:44;14.55;;;3.38;;
18822;SDS011;9540;51.550;7.980;2023-05-16T07:33:12;15.35;;;2.97;;
18822;SDS011;9540;51.550;7.980;2023-05-16T07:35:39;15.43;;;3.35;;
18822;SDS011;9540;51.550;7.980;2023-05-16T07:38:06;21.20;;;3.25;;
18822;SDS011;9540;51.550;7.980;2023-05-16T07:40:34;15.57;;;3.30;;
18822;SDS011;9540;51.550;7.980;2023-05-16T07:43:01;13.82;;;2.97;;
18822;SDS011;9540;51.550;7.980;2023-05-16T07:45:28;13.48;;;3.42;;
18822;SDS011;9540;51.550;7.980;2023-05-16T07:47:56;23.08;;;3.15;;
18822;SDS011;9540;51.550;7.980;2023-05-16T07:50:24;13.35;;;3.25;;
18822;SDS011;9540;51.550;7.980;2023-05-16T07:52:51;19.17;;;4.07;;
18822;SDS011;9540;51.550;7.980;2023-05-16T07:55:18;17.10;;;2.88;;
18822;SDS011;9540;51.550;7.980;2023-05-16T07:57:47;7.45;;;2.28;;
18822;SDS011;9540;51.550;7.980;2023-05-16T08:00:15;20.83;;;4.45;;
18822;SDS011;9540;51.550;7.980;2023-05-16T08:02:43;13.55;;;3.80;;
18822;SDS011;9540;51.550;7.980;2023-05-16T08:05:10;12.48;;;2.90;;
18822;SDS011;9540;51.550;7.980;2023-05-16T08:07:38;12.70;;;2.17;;
18822;SDS011;9540;51.550;7.980;2023-05-16T08:10:05;18.55;;;3.22;;
18822;SDS011;9540;51.550;7.980;2023-05-16T08:12:33;13.23;;;2.92;;
18822;SDS011;9540;51.550;7.980;2023-05-16T08:15:03;16.52;;;3.50;;
18822;SDS011;9540;51.550;7.980;2023-05-16T08:17:31;12.00;;;2.95;;
18822;SDS011;9540;51.550;7.980;2023-05-16T08:19:58;13.35;;;2.90;;
18822;SDS011;9540;51.550;7.980;2023-05-16T08:22:26;14.50;;;2.40;;
18822;SDS011;9540;51.550;7.980;2023-05-16T08:24:53;10.90;;;3.00;;
18822;SDS011;9540;51.550;7.980;2023-05-16T08:27:21;13.43;;;2.20;;
18822;SDS011;9540;51.550;7.980;2023-05-16T08:29:49;11.25;;;2.22;;
18822;SDS011;9540;51.550;7.980;2023-05-16T08:32:18;9.63;;;2.45;;
18822;SDS011;9540;51.550;7.980;2023-05-16T08:34:46;8.80;;;2.03;;
18822;SDS011;9540;51.550;7.980;2023-05-16T08:37:13;11.73;;;2.30;;
18822;SDS011;9540;51.550;7.980;2023-05-16T08:39:40;8.27;;;1.80;;
18822;SDS011;9540;51.550;7.980;2023-05-16T08:42:07;9.02;;;1.88;;
18822;SDS011;9540;51.550;7.980;2023-05-16T08:44:34;10.10;;;2.42;;
18822;SDS011;9540;51.550;7.980;2023-05-16T08:47:04;9.07;;;2.10;;
18822;SDS011;9540;51.550;7.980;2023-05-16T08:49:38;11.85;;;2.42;;
18822;SDS011;9540;51.550;7.980;2023-05-16T08:52:07;13.40;;;2.10;;
18822;SDS011;9540;51.550;7.980;2023-05-16T08:54:35;9.07;;;1.98;;
18822;SDS011;9540;51.550;7.980;2023-05-16T08:57:03;10.88;;;2.80;;
18822;SDS011;9540;51.550;7.980;2023-05-16T08:59:31;10.68;;;2.22;;
18822;SDS011;9540;51.550;7.980;2023-05-16T09:01:59;4.22;;;1.67;;
18822;SDS011;9540;51.550;7.980;2023-05-16T09:04:27;7.25;;;1.60;;
18822;SDS011;9540;51.550;7.980;2023-05-16T09:06:56;3.88;;;1.60;;
18822;SDS011;9540;51.550;7.980;2023-05-16T09:09:23;7.47;;;1.88;;
18822;SDS011;9540;51.550;7.980;2023-05-16T09:11:50;7.28;;;1.50;;
18822;SDS011;9540;51.550;7.980;2023-05-16T09:14:17;6.30;;;2.30;;
18822;SDS011;9540;51.550;7.980;2023-05-16T09:16:45;6.03;;;2.30;;
18822;SDS011;9540;51.550;7.980;2023-05-16T09:19:31;12.38;;;1.98;;
18822;SDS011;9540;51.550;7.980;2023-05-16T09:22:05;10.63;;;2.08;;
18822;SDS011;9540;51.550;7.980;2023-05-16T09:24:36;5.30;;;1.67;;
18822;SDS011;9540;51.550;7.980;2023-05-16T09:27:08;8.32;;;1.90;;
18822;SDS011;9540;51.550;7.980;2023-05-16T09:29:36;25.35;;;2.20;;
18822;SDS011;9540;51.550;7.980;2023-05-16T09:32:08;6.07;;;1.67;;
18822;SDS011;9540;51.550;7.980;2023-05-16T09:34:38;5.50;;;1.45;;
18822;SDS011;9540;51.550;7.980;2023-05-16T09:37:10;5.72;;;1.63;;
18822;SDS011;9540;51.550;7.980;2023-05-16T09:39:38;3.53;;;1.50;;
18822;SDS011;9540;51.550;7.980;2023-05-16T09:42:09;9.25;;;1.90;;
18822;SDS011;9540;51.550;7.980;2023-05-16T09:44:37;8.48;;;1.73;;
18822;SDS011;9540;51.550;7.980;2023-05-16T09:47:05;8.45;;;1.83;;
18822;SDS011;9540;51.550;7.980;2023-05-16T09:49:32;11.35;;;1.65;;
18822;SDS011;9540;51.550;7.980;2023-05-16T09:51:59;4.50;;;1.65;;
18822;SDS011;9540;51.550;7.980;2023-05-16T09:54:31;7.82;;;1.80;;
18822;SDS011;9540;51.550;7.980;2023-05-16T09:57:00;13.02;;;2.47;;
18822;SDS011;9540;51.550;7.980;2023-05-16T09:59:30;6.20;;;1.70;;
18822;SDS011;9540;51.550;7.980;2023-05-16T10:02:00;5.07;;;1.48;;
18822;SDS011;9540;51.550;7.980;2023-05-16T10:04:30;5.93;;;1.58;;
18822;SDS011;9540;51.550;7.980;2023-05-16T10:06:57;4.55;;;1.30;;
18822;SDS011;9540;51.550;7.980;2023-05-16T10:09:27;4.47;;;1.48;;
18822;SDS011;9540;51.550;7.980;2023-05-16T10:11:56;10.60;;;1.58;;
18822;SDS011;9540;51.550;7.980;2023-05-16T10:14:31;7.63;;;1.75;;
18822;SDS011;9540;51.550;7.980;2023-05-16T10:17:00;4.80;;;1.75;;
18822;SDS011;9540;51.550;7.980;2023-05-16T10:19:30;6.55;;;1.60;;
18822;SDS011;9540;51.550;7.980;2023-05-16T10:21:59;5.05;;;1.70;;
18822;SDS011;9540;51.550;7.980;2023-05-16T10:24:32;5.60;;;1.50;;
18822;SDS011;9540;51.550;7.980;2023-05-16T10:27:05;5.75;;;2.13;;
18822;SDS011;9540;51.550;7.980;2023-05-16T10:29:32;8.40;;;1.80;;
18822;SDS011;9540;51.550;7.980;2023-05-16T10:31:59;11.35;;;1.80;;
18822;SDS011;9540;51.550;7.980;2023-05-16T10:34:27;7.90;;;1.42;;
18822;SDS011;9540;51.550;7.980;2023-05-16T10:36:54;6.25;;;1.30;;
18822;SDS011;9540;51.550;7.980;2023-05-16T10:39:22;3.03;;;1.55;;
18822;SDS011;9540;51.550;7.980;2023-05-16T10:41:50;7.53;;;1.75;;
18822;SDS011;9540;51.550;7.980;2023-05-16T10:44:19;7.05;;;1.48;;
18822;SDS011;9540;51.550;7.980;2023-05-16T10:46:47;3.95;;;1.20;;
18822;SDS011;9540;51.550;7.980;2023-05-16T10:49:21;6.28;;;1.40;;
18822;SDS011;9540;51.550;7.980;2023-05-16T10:52:00;3.85;;;1.38;;
18822;SDS011;9540;51.550;7.980;2023-05-16T10:54:34;2.45;;;1.30;;
18822;SDS011;9540;51.550;7.980;2023-05-16T10:57:06;9.65;;;1.92;;
18822;SDS011;9540;51.550;7.980;2023-05-16T10:59:41;5.15;;;1.63;;
18822;SDS011;9540;51.550;7.980;2023-05-16T11:02:25;6.82;;;1.58;;
18822;SDS011;9540;51.550;7.980;2023-05-16T11:04:54;4.60;;;1.58;;
18822;SDS011;9540;51.550;7.980;2023-05-16T11:07:25;7.53;;;1.98;;
18822;SDS011;9540;51.550;7.980;2023-05-16T11:10:04;8.60;;;1.40;;
18822;SDS011;9540;51.550;7.980;2023-05-16T11:12:37;5.32;;;1.20;;
18822;SDS011;9540;51.550;7.980;2023-05-16T11:15:21;5.25;;;1.42;;
18822;SDS011;9540;51.550;7.980;2023-05-16T11:17:50;3.17;;;1.15;;
18822;SDS011;9540;51.550;7.980;2023-05-16T11:20:29;8.00;;;1.58;;
18822;SDS011;9540;51.550;7.980;2023-05-16T11:25:45;4.63;;;1.25;;
18822;SDS011;9540;51.550;7.980;2023-05-16T11:28:17;6.60;;;1.00;;
18822;SDS011;9540;51.550;7.980;2023-05-16T11:30:47;4.68;;;1.30;;
18822;SDS011;9540;51.550;7.980;2023-05-16T11:33:16;3.35;;;1.23;;
18822;SDS011;9540;51.550;7.980;2023-05-16T11:35:43;5.57;;;1.38;;
18822;SDS011;9540;51.550;7.980;2023-05-16T11:38:25;4.60;;;1.33;;
18822;SDS011;9540;51.550;7.980;2023-05-16T11:41:00;5.20;;;1.90;;
18822;SDS011;9540;51.550;7.980;2023-05-16T11:43:28;5.07;;;1.23;;
18822;SDS011;9540;51.550;7.980;2023-05-16T11:45:56;3.17;;;1.20;;
18822;SDS011;9540;51.550;7.980;2023-05-16T11:48:24;4.03;;;1.30;;
18822;SDS011;9540;51.550;7.980;2023-05-16T11:50:51;6.15;;;1.15;;
18822;SDS011;9540;51.550;7.980;2023-05-16T11:53:19;3.85;;;1.20;;
18822;SDS011;9540;51.550;7.980;2023-05-16T11:55:47;3.95;;;1.27;;
18822;SDS011;9540;51.550;7.980;2023-05-16T11:58:19;7.95;;;1.60;;
18822;SDS011;9540;51.550;7.980;2023-05-16T12:00:47;4.85;;;1.48;;
18822;SDS011;9540;51.550;7.980;2023-05-16T12:03:16;3.67;;;1.40;;
18822;SDS011;9540;51.550;7.980;2023-05-16T12:05:51;5.75;;;1.50;;
18822;SDS011;9540;51.550;7.980;2023-05-16T12:08:19;4.05;;;1.27;;
18822;SDS011;9540;51.550;7.980;2023-05-16T12:10:49;4.43;;;1.27;;
18822;SDS011;9540;51.550;7.980;2023-05-16T12:13:16;7.15;;;1.50;;
18822;SDS011;9540;51.550;7.980;2023-05-16T12:15:44;8.90;;;1.30;;
18822;SDS011;9540;51.550;7.980;2023-05-16T12:18:11;3.97;;;1.08;;
18822;SDS011;9540;51.550;7.980;2023-05-16T12:20:41;6.22;;;1.75;;
18822;SDS011;9540;51.550;7.980;2023-05-16T12:23:09;3.53;;;1.13;;
18822;SDS011;9540;51.550;7.980;2023-05-16T12:25:37;10.13;;;1.70;;
18822;SDS011;9540;51.550;7.980;2023-05-16T12:28:08;5.57;;;1.23;;
18822;SDS011;9540;51.550;7.980;2023-05-16T12:30:38;2.22;;;1.30;;
18822;SDS011;9540;51.550;7.980;2023-05-16T12:33:06;6.55;;;1.92;;
18822;SDS011;9540;51.550;7.980;2023-05-16T12:35:36;4.20;;;1.65;;
18822;SDS011;9540;51.550;7.980;2023-05-16T12:38:06;5.50;;;1.40;;
18822;SDS011;9540;51.550;7.980;2023-05-16T12:40:35;5.05;;;1.33;;
18822;SDS011;9540;51.550;7.980;2023-05-16T12:43:03;4.45;;;1.30;;
18822;SDS011;9540;51.550;7.980;2023-05-16T12:45:32;4.75;;;1.27;;
18822;SDS011;9540;51.550;7.980;2023-05-16T12:48:03;6.50;;;1.70;;
18822;SDS011;9540;51.550;7.980;2023-05-16T12:50:32;8.43;;;1.77;;
18822;SDS011;9540;51.550;7.980;2023-05-16T12:53:00;4.55;;;1.50;;
18822;SDS011;9540;51.550;7.980;2023-05-16T12:55:29;4.35;;;1.20;;
18822;SDS011;9540;51.550;7.980;2023-05-16T12:57:56;3.25;;;1.60;;
18822;SDS011;9540;51.550;7.980;2023-05-16T13:00:26;4.10;;;1.42;;
18822;SDS011;9540;51.550;7.980;2023-05-16T13:02:53;3.50;;;1.38;;
18822;SDS011;9540;51.550;7.980;2023-05-16T13:05:20;6.85;;;1.80;;
18822;SDS011;9540;51.550;7.980;2023-05-16T13:07:47;2.33;;;1.10;;
18822;SDS011;9540;51.550;7.980;2023-05-16T13:10:16;6.38;;;1.02;;
18822;SDS011;9540;51.550;7.980;2023-05-16T13:12:45;6.15;;;1.58;;
18822;SDS011;9540;51.550;7.980;2023-05-16T13:15:12;4.95;;;1.60;;
18822;SDS011;9540;51.550;7.980;2023-05-16T13:17:40;8.02;;;1.40;;
18822;SDS011;9540;51.550;7.980;2023-05-16T13:20:09;4.05;;;1.40;;
18822;SDS011;9540;51.550;7.980;2023-05-16T13:22:38;3.17;;;1.00;;
18822;SDS011;9540;51.550;7.980;2023-05-16T13:25:06;5.40;;;1.35;;
18822;SDS011;9540;51.550;7.980;2023-05-16T13:27:34;4.60;;;1.65;;
18822;SDS011;9540;51.550;7.980;2023-05-16T13:30:03;6.22;;;2.13;;
18822;SDS011;9540;51.550;7.980;2023-05-16T13:32:31;2.95;;;1.10;;
18822;SDS011;9540;51.550;7.980;2023-05-16T13:34:58;3.28;;;1.20;;
18822;SDS011;9540;51.550;7.980;2023-05-16T13:37:25;2.58;;;1.15;;
18822;SDS011;9540;51.550;7.980;2023-05-16T13:39:53;3.47;;;1.50;;
18822;SDS011;9540;51.550;7.980;2023-05-16T13:42:20;3.92;;;1.13;;
18822;SDS011;9540;51.550;7.980;2023-05-16T13:44:47;2.78;;;0.98;;
18822;SDS011;9540;51.550;7.980;2023-05-16T13:47:16;5.35;;;1.50;;
18822;SDS011;9540;51.550;7.980;2023-05-16T13:49:43;5.63;;;1.40;;
18822;SDS011;9540;51.550;7.980;2023-05-16T13:52:11;3.97;;;1.30;;
18822;SDS011;9540;51.550;7.980;2023-05-16T13:54:39;2.83;;;1.08;;
18822;SDS011;9540;51.550;7.980;2023-05-16T13:57:06;3.25;;;1.30;;
18822;SDS011;9540;51.550;7.980;2023-05-16T13:59:34;4.45;;;1.20;;
18822;SDS011;9540;51.550;7.980;2023-05-16T14:02:01;2.30;;;1.10;;
18822;SDS011;9540;51.550;7.980;2023-05-16T14:04:30;4.07;;;1.15;;
18822;SDS011;9540;51.550;7.980;2023-05-16T14:06:57;3.47;;;1.10;;
18822;SDS011;9540;51.550;7.980;2023-05-16T14:09:24;3.63;;;1.17;;
18822;SDS011;9540;51.550;7.980;2023-05-16T14:11:51;1.35;;;0.98;;
18822;SDS011;9540;51.550;7.980;2023-05-16T14:14:18;3.20;;;1.10;;
18822;SDS011;9540;51.550;7.980;2023-05-16T14:16:45;3.10;;;1.00;;
18822;SDS011;9540;51.550;7.980;2023-05-16T14:19:13;5.65;;;1.10;;
18822;SDS011;9540;51.550;7.980;2023-05-16T14:21:42;4.30;;;1.30;;
18822;SDS011;9540;51.550;7.980;2023-05-16T14:24:09;4.88;;;1.10;;
18822;SDS011;9540;51.550;7.980;2023-05-16T14:26:36;8.77;;;1.52;;
18822;SDS011;9540;51.550;7.980;2023-05-16T14:29:03;4.13;;;0.98;;
18822;SDS011;9540;51.550;7.980;2023-05-16T14:31:30;3.25;;;1.17;;
18822;SDS011;9540;51.550;7.980;2023-05-16T14:33:57;7.97;;;1.60;;
18822;SDS011;9540;51.550;7.980;2023-05-16T14:36:25;2.95;;;1.17;;
18822;SDS011;9540;51.550;7.980;2023-05-16T14:38:53;3.30;;;1.13;;
18822;SDS011;9540;51.550;7.980;2023-05-16T14:41:20;5.80;;;1.20;;
18822;SDS011;9540;51.550;7.980;2023-05-16T14:43:47;5.55;;;1.00;;
18822;SDS011;9540;51.550;7.980;2023-05-16T14:46:15;3.80;;;1.23;;
18822;SDS011;9540;51.550;7.980;2023-05-16T14:48:42;3.88;;;1.10;;
18822;SDS011;9540;51.550;7.980;2023-05-16T14:51:10;5.22;;;1.23;;
18822;SDS011;9540;51.550;7.980;2023-05-16T14:53:37;3.03;;;1.45;;
18822;SDS011;9540;51.550;7.980;2023-05-16T14:56:07;3.40;;;1.20;;
18822;SDS011;9540;51.550;7.980;2023-05-16T14:58:34;5.10;;;1.30;;
18822;SDS011;9540;51.550;7.980;2023-05-16T15:01:02;5.45;;;1.20;;
18822;SDS011;9540;51.550;7.980;2023-05-16T15:03:29;3.30;;;1.25;;
18822;SDS011;9540;51.550;7.980;2023-05-16T15:05:57;5.50;;;1.35;;